Time;durP1;ratioP1;P1;durP2;ratioP2;P2;SDS_P1;SDS_P2;PMS_P1;PMS_P2;Temp;Humidity;BMP_temperature;BMP_pressure;BME280_temperature;BME280_humidity;BME280_pressure;Samples;Min_cycle;Max_cycle;Signal;HPM_P1;HPM_P2
2020/12/08 00:00:23;;;;;;;74.22;31.80;;;3.00;99.90;;;;;;5045327;28;20029;-64
2020/12/08 00:02:50;;;;;;;79.35;31.77;;;3.00;99.90;;;;;;5042900;28;20025;-64
2020/12/08 00:05:19;;;;;;;78.60;33.00;;;3.00;99.90;;;;;;5045960;28;20064;-65
2020/12/08 00:07:45;;;;;;;74.43;32.05;;;3.10;99.90;;;;;;5043106;28;20033;-66
2020/12/08 00:10:11;;;;;;;76.72;32.78;;;3.00;99.90;;;;;;5027486;28;20096;-64
2020/12/08 00:12:36;;;;;;;76.90;32.53;;;3.00;99.90;;;;;;5032783;28;20072;-65
2020/12/08 00:15:04;;;;;;;80.38;33.17;;;3.10;99.90;;;;;;5037900;28;20021;-66
2020/12/08 00:17:31;;;;;;;82.45;32.65;;;3.10;99.90;;;;;;5038875;28;20017;-65
2020/12/08 00:19:56;;;;;;;77.75;32.58;;;2.90;99.90;;;;;;5046525;28;20013;-64
2020/12/08 00:22:22;;;;;;;76.15;31.98;;;2.90;99.90;;;;;;5032787;28;20034;-65
2020/12/08 00:24:47;;;;;;;82.22;34.13;;;2.90;99.90;;;;;;5043191;28;20109;-65
2020/12/08 00:27:13;;;;;;;71.85;31.45;;;2.90;99.90;;;;;;5032437;28;20026;-66
2020/12/08 00:29:40;;;;;;;76.00;32.97;;;2.90;99.90;;;;;;5031924;28;20013;-66
2020/12/08 00:32:07;;;;;;;76.68;30.92;;;2.90;99.90;;;;;;5032772;28;20057;-65
2020/12/08 00:34:34;;;;;;;75.90;31.77;;;2.90;99.90;;;;;;5014556;28;20022;-67
2020/12/08 00:37:00;;;;;;;80.45;33.67;;;2.90;99.90;;;;;;5032728;28;20113;-66
2020/12/08 00:39:25;;;;;;;81.65;33.58;;;2.90;99.90;;;;;;5034236;28;20056;-65
2020/12/08 00:41:51;;;;;;;81.38;33.03;;;2.80;99.90;;;;;;5038363;28;20092;-65
2020/12/08 00:44:17;;;;;;;79.80;32.65;;;2.80;99.90;;;;;;5032112;28;20021;-65
2020/12/08 00:46:46;;;;;;;95.10;35.67;;;2.70;99.90;;;;;;5036686;28;20028;-65
2020/12/08 00:49:12;;;;;;;88.13;36.45;;;2.60;99.90;;;;;;5032366;28;20025;-65
2020/12/08 00:51:37;;;;;;;84.28;34.10;;;2.60;99.90;;;;;;5040185;28;20419;-64
2020/12/08 00:54:03;;;;;;;91.80;35.05;;;2.50;99.90;;;;;;5033852;28;20072;-65
2020/12/08 00:56:31;;;;;;;95.63;35.95;;;2.50;99.90;;;;;;5034162;28;20057;-64
2020/12/08 00:58:57;;;;;;;90.45;35.50;;;2.50;99.90;;;;;;5035114;28;20026;-65
2020/12/08 01:01:22;;;;;;;90.28;37.10;;;2.50;99.90;;;;;;5032115;28;20032;-65
2020/12/08 01:03:48;;;;;;;95.97;38.25;;;2.60;99.90;;;;;;5033171;28;20029;-66
2020/12/08 01:06:13;;;;;;;98.20;37.60;;;2.60;99.90;;;;;;5031622;28;20169;-65
2020/12/08 01:08:39;;;;;;;97.63;37.60;;;2.50;99.90;;;;;;5036492;28;20069;-66
2020/12/08 01:11:04;;;;;;;90.00;37.42;;;2.60;99.90;;;;;;5043389;28;20403;-66
2020/12/08 01:13:34;;;;;;;88.40;37.40;;;2.60;99.90;;;;;;5052039;28;20028;-66
2020/12/08 01:16:03;;;;;;;92.32;37.50;;;2.70;99.90;;;;;;5051213;28;20029;-65
2020/12/08 01:18:29;;;;;;;98.57;38.30;;;2.60;99.90;;;;;;5051150;28;20348;-64
2020/12/08 01:20:57;;;;;;;105.72;40.22;;;2.50;99.90;;;;;;5050768;28;20025;-65
2020/12/08 01:23:24;;;;;;;104.85;39.67;;;2.50;99.90;;;;;;5051793;28;20109;-66
2020/12/08 01:25:50;;;;;;;108.57;40.25;;;2.50;99.90;;;;;;5051786;28;20057;-65
2020/12/08 01:28:17;;;;;;;107.72;38.88;;;2.50;99.90;;;;;;5052195;28;20550;-65
2020/12/08 01:30:44;;;;;;;94.68;38.67;;;2.50;99.90;;;;;;5051145;28;20112;-66
2020/12/08 01:33:10;;;;;;;101.57;40.45;;;2.60;99.90;;;;;;5051811;28;20024;-66
2020/12/08 01:35:35;;;;;;;107.93;39.47;;;2.60;99.90;;;;;;5037738;28;20033;-64
2020/12/08 01:38:01;;;;;;;106.10;40.13;;;2.50;99.90;;;;;;5051989;28;20025;-65
2020/12/08 01:40:26;;;;;;;112.97;40.65;;;2.50;99.90;;;;;;5050881;28;20115;-66
2020/12/08 01:42:52;;;;;;;108.55;41.88;;;2.50;99.90;;;;;;5047870;28;20033;-64
2020/12/08 01:45:17;;;;;;;109.78;41.08;;;2.60;99.90;;;;;;5035403;28;20030;-66
2020/12/08 01:47:43;;;;;;;94.70;38.92;;;2.70;99.90;;;;;;5052512;28;20009;-65
2020/12/08 01:50:09;;;;;;;94.00;39.30;;;2.70;99.90;;;;;;5048406;28;20025;-66
2020/12/08 01:52:35;;;;;;;97.47;39.50;;;2.70;99.90;;;;;;5051169;28;20092;-66
2020/12/08 01:55:03;;;;;;;108.82;40.80;;;2.60;99.90;;;;;;5051011;28;20120;-64
2020/12/08 01:57:28;;;;;;;99.45;39.83;;;2.60;99.90;;;;;;5048411;28;20028;-66
2020/12/08 01:59:54;;;;;;;105.32;40.28;;;2.70;99.90;;;;;;5051782;28;20048;-65
2020/12/08 02:02:20;;;;;;;100.50;39.15;;;2.70;99.90;;;;;;5051456;28;20059;-65
2020/12/08 02:04:46;;;;;;;106.22;41.00;;;2.70;99.90;;;;;;5053433;28;20386;-65
2020/12/08 02:07:11;;;;;;;93.47;39.28;;;2.80;99.90;;;;;;5054282;28;20111;-65
2020/12/08 02:09:37;;;;;;;100.93;41.60;;;2.80;99.90;;;;;;5052450;28;20036;-65
2020/12/08 02:12:04;;;;;;;93.22;40.38;;;2.90;99.90;;;;;;5055602;28;20475;-65
2020/12/08 02:14:30;;;;;;;98.60;39.85;;;3.10;99.90;;;;;;5053424;28;20036;-65
2020/12/08 02:16:55;;;;;;;92.40;39.08;;;3.00;99.90;;;;;;5052048;28;20775;-65
2020/12/08 02:19:21;;;;;;;82.05;36.75;;;3.10;99.90;;;;;;5053544;28;20403;-65
2020/12/08 02:21:46;;;;;;;92.63;38.95;;;3.10;99.90;;;;;;5039798;28;20534;-64
2020/12/08 02:24:12;;;;;;;89.57;38.75;;;3.10;99.90;;;;;;5052474;28;20033;-65
2020/12/08 02:26:37;;;;;;;88.35;37.72;;;3.00;99.90;;;;;;5050863;28;20025;-66
2020/12/08 02:29:03;;;;;;;81.43;36.95;;;2.90;99.90;;;;;;5045008;28;20499;-66
2020/12/08 02:31:29;;;;;;;83.18;37.13;;;2.90;99.90;;;;;;5040656;28;20021;-65
2020/12/08 02:33:54;;;;;;;77.32;34.65;;;2.90;99.90;;;;;;5050934;28;20112;-66
2020/12/08 02:36:20;;;;;;;85.40;37.40;;;3.00;99.90;;;;;;5051981;28;20039;-65
2020/12/08 02:38:45;;;;;;;81.00;35.10;;;2.90;99.90;;;;;;5051046;28;20035;-65
2020/12/08 02:41:11;;;;;;;77.53;36.72;;;3.00;99.90;;;;;;5048551;28;20082;-66
2020/12/08 02:43:36;;;;;;;76.93;34.78;;;3.00;99.90;;;;;;5051742;28;20051;-64
2020/12/08 02:46:02;;;;;;;77.00;35.05;;;2.90;99.90;;;;;;5056997;28;20073;-65
2020/12/08 02:48:28;;;;;;;80.75;35.90;;;2.80;99.90;;;;;;5059922;28;20111;-67
2020/12/08 02:50:53;;;;;;;83.40;36.47;;;2.80;99.90;;;;;;5060839;28;20433;-65
2020/12/08 02:53:19;;;;;;;85.18;36.20;;;2.80;99.90;;;;;;5059344;28;20073;-66
2020/12/08 02:55:48;;;;;;;91.30;36.67;;;2.80;99.90;;;;;;5059810;28;20104;-66
2020/12/08 02:58:15;;;;;;;98.05;38.63;;;2.70;99.90;;;;;;5056155;28;20036;-66
2020/12/08 03:00:40;;;;;;;93.97;38.67;;;2.70;99.90;;;;;;5061734;28;20083;-66
2020/12/08 03:03:06;;;;;;;98.70;37.85;;;2.60;99.90;;;;;;5045266;28;20025;-65
2020/12/08 03:05:32;;;;;;;94.10;38.05;;;2.60;99.90;;;;;;5058955;28;20013;-65
2020/12/08 03:07:58;;;;;;;97.60;38.65;;;2.50;99.90;;;;;;5056942;28;20025;-65
2020/12/08 03:10:23;;;;;;;95.47;39.80;;;2.50;99.90;;;;;;5051192;28;20084;-66
2020/12/08 03:12:49;;;;;;;104.95;39.13;;;2.50;99.90;;;;;;5050455;28;20121;-65
2020/12/08 03:15:14;;;;;;;101.32;39.15;;;2.40;99.90;;;;;;5049934;28;20479;-66
2020/12/08 03:17:40;;;;;;;99.22;38.90;;;2.50;99.90;;;;;;5048268;28;20086;-66
2020/12/08 03:20:06;;;;;;;100.10;38.30;;;2.40;99.90;;;;;;5045242;28;20090;-65
2020/12/08 03:22:31;;;;;;;106.85;37.90;;;2.40;99.90;;;;;;5050173;28;20025;-66
2020/12/08 03:24:57;;;;;;;94.80;37.97;;;2.30;99.90;;;;;;5049753;28;20021;-65
2020/12/08 03:27:22;;;;;;;112.80;39.35;;;2.30;99.90;;;;;;5050374;28;20503;-66
2020/12/08 03:29:48;;;;;;;94.22;37.00;;;2.30;99.90;;;;;;5050097;28;20087;-64
2020/12/08 03:32:13;;;;;;;103.07;38.25;;;2.30;99.90;;;;;;5049835;28;20025;-66
2020/12/08 03:34:39;;;;;;;100.10;38.85;;;2.30;99.90;;;;;;5046240;28;20024;-65
2020/12/08 03:37:04;;;;;;;110.43;39.85;;;2.20;99.90;;;;;;5048377;28;20383;-64
2020/12/08 03:39:30;;;;;;;108.15;37.90;;;2.20;99.90;;;;;;5051278;28;20028;-65
2020/12/08 03:42:05;;;;;;;111.93;38.83;;;2.20;99.90;;;;;;5048084;28;20052;-64
2020/12/08 03:44:31;;;;;;;109.20;37.45;;;2.20;99.90;;;;;;5043549;28;20025;-65
2020/12/08 03:46:57;;;;;;;114.95;38.30;;;2.20;99.90;;;;;;5054491;28;20037;-65
2020/12/08 03:49:26;;;;;;;97.47;38.13;;;2.20;99.90;;;;;;5053242;28;20433;-66
2020/12/08 03:51:55;;;;;;;100.18;38.03;;;2.30;99.90;;;;;;5053483;28;20029;-65
2020/12/08 03:54:21;;;;;;;104.22;38.08;;;2.30;99.90;;;;;;5052559;28;20033;-65
2020/12/08 03:56:47;;;;;;;100.30;37.40;;;2.30;99.90;;;;;;5053143;28;20040;-65
2020/12/08 03:59:19;;;;;;;94.75;36.95;;;2.40;99.90;;;;;;5054690;28;20021;-66
2020/12/08 04:01:51;;;;;;;;;;;2.40;99.90;;;;;;5053226;28;20021;-63
2020/12/08 04:04:18;;;;;;;84.95;35.33;;;2.30;99.90;;;;;;5054259;28;19908;-65
2020/12/08 04:06:44;;;;;;;89.85;35.88;;;2.30;99.90;;;;;;5053995;28;20631;-64
2020/12/08 04:09:09;;;;;;;87.07;36.50;;;2.30;99.90;;;;;;5054133;28;20045;-65
2020/12/08 04:11:35;;;;;;;79.38;34.28;;;2.30;99.90;;;;;;5053706;28;20021;-65
2020/12/08 04:14:01;;;;;;;91.93;35.30;;;2.30;99.90;;;;;;5053986;28;20033;-65
2020/12/08 04:16:28;;;;;;;77.63;33.55;;;2.30;99.90;;;;;;5052396;28;20083;-65
2020/12/08 04:18:54;;;;;;;92.05;36.33;;;2.40;99.90;;;;;;5052616;28;20040;-64
2020/12/08 04:21:24;;;;;;;82.75;34.70;;;2.40;99.90;;;;;;5051168;28;20033;-65
2020/12/08 04:23:50;;;;;;;92.68;35.83;;;2.40;99.90;;;;;;5052155;28;20017;-65
2020/12/08 04:26:16;;;;;;;88.70;35.90;;;2.40;99.90;;;;;;5052327;28;20067;-65
2020/12/08 04:28:43;;;;;;;88.45;35.10;;;2.30;99.90;;;;;;5054051;28;20056;-66
2020/12/08 04:31:16;;;;;;;81.85;33.60;;;2.30;99.90;;;;;;5054582;28;20544;-65
2020/12/08 04:33:43;;;;;;;100.07;36.83;;;2.20;99.90;;;;;;5055456;28;20029;-64
2020/12/08 04:36:17;;;;;;;94.93;34.92;;;2.10;99.90;;;;;;5053857;28;20025;-66
2020/12/08 04:38:43;;;;;;;111.28;36.85;;;2.00;99.90;;;;;;5054178;28;20086;-65
2020/12/08 04:41:10;;;;;;;99.80;36.55;;;2.00;99.90;;;;;;5053046;28;20451;-66
2020/12/08 04:43:40;;;;;;;93.32;36.03;;;2.00;99.90;;;;;;5053791;28;20037;-66
2020/12/08 04:46:06;;;;;;;91.22;34.70;;;2.00;99.90;;;;;;5053328;28;20016;-65
2020/12/08 04:48:35;;;;;;;92.97;35.50;;;2.00;99.90;;;;;;5052765;28;20033;-65
2020/12/08 04:51:01;;;;;;;96.57;36.53;;;2.00;99.90;;;;;;5052460;28;20090;-66
2020/12/08 04:53:26;;;;;;;91.65;33.65;;;2.00;99.90;;;;;;5052574;28;20029;-64
2020/12/08 04:55:52;;;;;;;98.82;35.85;;;2.00;99.90;;;;;;5053677;28;20056;-65
2020/12/08 04:58:18;;;;;;;89.85;34.97;;;1.90;99.90;;;;;;5053116;28;20074;-66
2020/12/08 05:00:44;;;;;;;93.38;34.83;;;1.90;99.90;;;;;;5051881;28;20360;-66
2020/12/08 05:03:11;;;;;;;96.88;34.75;;;1.80;99.90;;;;;;5052392;28;20540;-66
2020/12/08 05:05:43;;;;;;;82.10;31.17;;;1.80;99.90;;;;;;5052988;28;20025;-66
2020/12/08 05:10:48;;;;;;;83.13;31.42;;;1.90;99.90;;;;;;5050404;28;20091;-58
2020/12/08 05:13:19;;;;;;;74.72;30.10;;;2.00;99.90;;;;;;5053201;28;20021;-59
2020/12/08 05:16:02;;;;;;;81.43;32.20;;;1.80;99.90;;;;;;5053167;28;20028;-59
2020/12/08 05:18:27;;;;;;;75.50;30.15;;;1.80;99.90;;;;;;5040913;28;20438;-58
2020/12/08 05:20:54;;;;;;;75.32;31.25;;;1.80;99.90;;;;;;5049395;28;20506;-59
2020/12/08 05:23:19;;;;;;;78.38;30.77;;;1.80;99.90;;;;;;5057147;28;20475;-59
2020/12/08 05:25:45;;;;;;;79.90;32.65;;;1.80;99.90;;;;;;5058945;28;20027;-63
2020/12/08 05:28:18;;;;;;;83.40;31.17;;;1.80;99.90;;;;;;5047062;28;20024;-59
2020/12/08 05:30:44;;;;;;;70.78;27.20;;;1.80;99.90;;;;;;5050880;28;20029;-59
2020/12/08 05:33:15;;;;;;;73.50;28.67;;;1.90;99.90;;;;;;5045400;28;20486;-59
2020/12/08 05:35:45;;;;;;;69.00;28.23;;;1.80;99.90;;;;;;5050370;28;20025;-59
2020/12/08 05:38:15;;;;;;;64.65;27.92;;;1.80;99.90;;;;;;5059151;28;20028;-59
2020/12/08 05:40:43;;;;;;;60.22;27.20;;;1.80;99.90;;;;;;5039031;28;20052;-59
2020/12/08 05:43:09;;;;;;;70.68;28.42;;;1.80;99.90;;;;;;5046496;28;20072;-59
2020/12/08 05:45:36;;;;;;;63.83;27.45;;;1.90;99.90;;;;;;5049330;28;20025;-59
2020/12/08 05:48:02;;;;;;;64.80;26.65;;;1.80;99.90;;;;;;5050575;28;20021;-60
2020/12/08 05:50:27;;;;;;;58.35;25.65;;;1.80;99.90;;;;;;5052122;28;20032;-59
2020/12/08 05:52:58;;;;;;;65.25;26.40;;;1.80;99.90;;;;;;5050650;28;20037;-61
2020/12/08 05:55:28;;;;;;;61.78;26.33;;;1.70;99.90;;;;;;5052206;28;20348;-59
2020/12/08 05:57:53;;;;;;;66.30;26.83;;;1.70;99.90;;;;;;5049026;28;20021;-60
2020/12/08 06:00:27;;;;;;;55.70;24.63;;;1.70;99.90;;;;;;5048991;28;20047;-60
2020/12/08 06:02:54;;;;;;;60.80;26.25;;;1.70;99.90;;;;;;5047737;28;20036;-60
2020/12/08 06:05:31;;;;;;;49.72;23.45;;;1.70;99.90;;;;;;5051575;28;20048;-60
2020/12/08 06:07:57;;;;;;;56.70;25.42;;;1.80;99.90;;;;;;5038901;28;20518;-60
2020/12/08 06:10:23;;;;;;;58.25;24.38;;;1.80;99.90;;;;;;5051020;28;20045;-60
2020/12/08 06:13:00;;;;;;;48.30;23.65;;;1.90;99.90;;;;;;5049507;28;20032;-60
2020/12/08 06:15:36;;;;;;;52.65;23.33;;;1.80;99.90;;;;;;5044432;28;20036;-59
2020/12/08 06:18:02;;;;;;;62.78;26.95;;;1.80;99.90;;;;;;5045295;28;20105;-60
2020/12/08 06:20:27;;;;;;;59.75;26.50;;;1.80;99.90;;;;;;5037797;28;20049;-58
2020/12/08 06:22:54;;;;;;;62.20;26.77;;;1.70;99.90;;;;;;5066791;28;20098;-60
2020/12/08 06:25:20;;;;;;;58.92;25.65;;;1.70;99.90;;;;;;5061116;28;20021;-59
2020/12/08 06:27:45;;;;;;;63.60;27.58;;;1.70;99.90;;;;;;5050094;28;20079;-59
2020/12/08 06:30:11;;;;;;;69.90;30.23;;;1.60;99.90;;;;;;5044728;28;20032;-60
2020/12/08 06:32:37;;;;;;;57.90;26.23;;;1.60;99.90;;;;;;5045900;28;20407;-58
2020/12/08 06:35:11;;;;;;;62.65;26.75;;;1.60;99.90;;;;;;5040697;28;20118;-60
2020/12/08 06:37:45;;;;;;;65.25;26.58;;;1.50;99.90;;;;;;5045807;28;20168;-60
2020/12/08 06:40:16;;;;;;;63.80;26.50;;;1.50;99.90;;;;;;5055356;28;20029;-59
2020/12/08 06:42:42;;;;;;;65.50;27.10;;;1.50;99.90;;;;;;5052463;28;20025;-59
2020/12/08 06:45:09;;;;;;;60.90;27.65;;;1.30;99.90;;;;;;5048931;28;20078;-59
2020/12/08 06:47:35;;;;;;;64.88;27.90;;;1.20;99.90;;;;;;5043278;28;20017;-59
2020/12/08 06:50:01;;;;;;;68.43;27.15;;;1.20;99.90;;;;;;5046715;28;20113;-59
2020/12/08 06:52:29;;;;;;;70.90;27.20;;;1.20;99.90;;;;;;5046145;28;20080;-63
2020/12/08 06:55:03;;;;;;;61.70;25.75;;;1.30;99.90;;;;;;5045751;28;20024;-60
2020/12/08 06:57:29;;;;;;;55.42;24.98;;;1.30;99.90;;;;;;5043360;28;20025;-59
2020/12/08 07:00:06;;;;;;;71.15;27.90;;;1.30;99.90;;;;;;5046891;28;20040;-59
2020/12/08 07:02:50;;;;;;;64.40;26.15;;;1.30;99.90;;;;;;5045482;28;20021;-60
2020/12/08 07:05:27;;;;;;;66.40;27.80;;;1.30;99.90;;;;;;5044569;28;20028;-59
2020/12/08 07:07:53;;;;;;;74.32;29.23;;;1.20;99.90;;;;;;5042609;28;20021;-59
2020/12/08 07:10:20;;;;;;;69.38;26.55;;;1.20;99.90;;;;;;5047331;28;20461;-59
2020/12/08 07:12:49;;;;;;;66.53;26.95;;;1.20;99.90;;;;;;5049550;28;20155;-60
2020/12/08 07:15:32;;;;;;;59.78;25.75;;;1.30;99.90;;;;;;5045680;28;20395;-59
2020/12/08 07:18:03;;;;;;;61.65;26.25;;;1.40;99.90;;;;;;5053688;28;20029;-59
2020/12/08 07:20:30;;;;;;;56.88;23.30;;;1.50;99.90;;;;;;5052464;28;20085;-60
2020/12/08 07:22:55;;;;;;;64.05;25.50;;;1.50;99.90;;;;;;5053299;28;20052;-63
2020/12/08 07:25:22;;;;;;;59.33;25.90;;;1.40;99.90;;;;;;5053749;28;20185;-60
2020/12/08 07:27:50;;;;;;;64.28;26.13;;;1.40;99.90;;;;;;5049326;28;20033;-60
2020/12/08 07:30:20;;;;;;;67.80;26.30;;;1.40;99.90;;;;;;5053149;28;20025;-59
2020/12/08 07:32:46;;;;;;;57.58;25.05;;;1.30;99.90;;;;;;5050041;28;20029;-59
2020/12/08 07:35:42;;;;;;;55.80;24.65;;;1.30;99.90;;;;;;5053222;28;20017;-59
2020/12/08 07:38:08;;;;;;;60.75;24.40;;;1.30;99.90;;;;;;5047476;28;20061;-59
2020/12/08 07:40:36;;;;;;;49.42;23.55;;;1.40;99.90;;;;;;5050704;28;20506;-60
2020/12/08 07:43:04;;;;;;;67.88;24.83;;;1.50;99.90;;;;;;5046410;28;20060;-60
2020/12/08 07:45:40;;;;;;;57.35;23.65;;;1.60;99.90;;;;;;5046443;28;20028;-60
2020/12/08 07:48:06;;;;;;;49.75;22.35;;;1.50;99.90;;;;;;5045314;28;20017;-60
2020/12/08 07:50:33;;;;;;;62.35;25.10;;;1.60;99.90;;;;;;5050064;28;20029;-60
2020/12/08 07:53:09;;;;;;;56.72;25.40;;;1.60;99.90;;;;;;5049675;28;20018;-60
2020/12/08 07:55:39;;;;;;;46.60;22.92;;;1.60;99.90;;;;;;5039533;28;20049;-59
2020/12/08 07:58:05;;;;;;;62.28;26.60;;;1.60;99.90;;;;;;5049394;28;20029;-60
2020/12/08 08:00:30;;;;;;;64.97;25.45;;;1.60;99.90;;;;;;5051541;28;20032;-60
2020/12/08 08:02:56;;;;;;;54.88;24.17;;;1.60;99.90;;;;;;5048446;28;20033;-61
2020/12/08 08:05:21;;;;;;;60.95;25.13;;;1.70;99.90;;;;;;5050193;28;20119;-60
2020/12/08 08:07:47;;;;;;;60.80;25.63;;;1.70;99.90;;;;;;5051277;28;20029;-60
2020/12/08 08:10:13;;;;;;;60.40;25.50;;;1.70;99.90;;;;;;5045141;28;20045;-60
2020/12/08 08:12:38;;;;;;;62.70;26.98;;;1.80;99.90;;;;;;5051077;28;20056;-62
2020/12/08 08:15:05;;;;;;;53.92;24.15;;;1.80;99.90;;;;;;5049240;28;20179;-60
2020/12/08 08:17:31;;;;;;;61.63;26.02;;;1.80;99.90;;;;;;5046009;28;20035;-60
2020/12/08 08:19:57;;;;;;;60.75;27.02;;;1.90;99.90;;;;;;5039705;28;20026;-59
2020/12/08 08:22:22;;;;;;;60.55;26.17;;;2.00;99.90;;;;;;5040965;28;20043;-60
2020/12/08 08:24:48;;;;;;;56.35;25.42;;;2.10;99.90;;;;;;5042355;28;20021;-61
2020/12/08 08:27:13;;;;;;;161.75;31.40;;;2.10;99.90;;;;;;5046898;28;20025;-61
2020/12/08 08:29:39;;;;;;;60.55;26.17;;;2.10;99.90;;;;;;5041096;28;20037;-60
2020/12/08 08:32:04;;;;;;;60.60;25.80;;;2.20;99.90;;;;;;5048755;28;20021;-59
2020/12/08 08:34:30;;;;;;;59.65;27.60;;;2.20;99.90;;;;;;5055673;28;20024;-59
2020/12/08 08:36:56;;;;;;;63.15;26.27;;;2.30;99.90;;;;;;5066624;28;20024;-59
2020/12/08 08:39:22;;;;;;;48.58;24.33;;;2.20;99.90;;;;;;5064281;28;20023;-59
2020/12/08 08:41:48;;;;;;;57.35;26.30;;;2.20;99.90;;;;;;5056052;28;20127;-59
2020/12/08 08:44:14;;;;;;;60.03;28.00;;;2.30;99.90;;;;;;5054186;28;20075;-60
2020/12/08 08:46:41;;;;;;;61.13;26.52;;;2.40;99.90;;;;;;5046890;28;20495;-60
2020/12/08 08:49:08;;;;;;;55.70;26.65;;;2.50;99.90;;;;;;5049397;28;20360;-60
2020/12/08 08:51:34;;;;;;;53.60;25.38;;;2.40;99.90;;;;;;5047923;28;20025;-61
2020/12/08 08:54:00;;;;;;;60.30;26.40;;;2.40;99.90;;;;;;5049540;28;20071;-60
2020/12/08 08:56:25;;;;;;;55.88;25.92;;;2.40;99.90;;;;;;5043995;28;20422;-62
2020/12/08 08:58:51;;;;;;;59.10;25.30;;;2.50;99.90;;;;;;5048785;28;20063;-61
2020/12/08 09:01:16;;;;;;;60.13;25.92;;;2.50;99.90;;;;;;5050143;28;20029;-59
2020/12/08 09:03:45;;;;;;;55.63;25.83;;;2.50;99.90;;;;;;5045451;28;20055;-62
2020/12/08 09:06:11;;;;;;;60.47;25.95;;;2.50;99.90;;;;;;5049531;28;20021;-59
2020/12/08 09:08:37;;;;;;;57.28;26.13;;;2.50;99.90;;;;;;5045442;28;20458;-60
2020/12/08 09:11:02;;;;;;;54.35;25.25;;;2.60;99.90;;;;;;5031305;28;20056;-59
2020/12/08 09:13:28;;;;;;;54.70;24.27;;;2.50;99.90;;;;;;5026042;28;20029;-60
2020/12/08 09:15:53;;;;;;;54.00;26.08;;;2.70;99.90;;;;;;5031704;28;20064;-60
2020/12/08 09:18:19;;;;;;;49.80;25.42;;;2.80;99.90;;;;;;5017688;28;20022;-60
2020/12/08 09:20:44;;;;;;;52.58;25.70;;;2.70;99.90;;;;;;5022573;28;20053;-60
2020/12/08 09:23:10;;;;;;;50.83;25.48;;;2.70;99.90;;;;;;5034469;28;20029;-61
2020/12/08 09:25:35;;;;;;;44.13;24.15;;;2.60;99.90;;;;;;5031914;28;20028;-60
2020/12/08 09:28:01;;;;;;;45.05;24.38;;;2.80;99.90;;;;;;5031996;28;20053;-60
2020/12/08 09:30:26;;;;;;;58.40;26.85;;;2.80;99.90;;;;;;5028617;28;20116;-60
2020/12/08 09:32:52;;;;;;;53.72;25.95;;;2.90;99.90;;;;;;5037198;28;20056;-60
2020/12/08 09:35:17;;;;;;;50.95;26.05;;;3.00;99.90;;;;;;5061713;28;20042;-61
2020/12/08 09:37:44;;;;;;;52.72;26.95;;;3.10;99.90;;;;;;5054469;28;20021;-60
2020/12/08 09:40:10;;;;;;;51.15;26.05;;;3.10;99.90;;;;;;5047107;28;20025;-60
2020/12/08 09:42:40;;;;;;;50.13;24.83;;;3.20;99.90;;;;;;5030101;28;20021;-60
2020/12/08 09:45:07;;;;;;;51.75;26.48;;;3.20;99.90;;;;;;5043027;28;20415;-59
2020/12/08 09:47:35;;;;;;;56.88;27.25;;;3.20;99.90;;;;;;5032693;28;20479;-61
2020/12/08 09:50:02;;;;;;;46.92;23.55;;;3.20;99.90;;;;;;5050740;28;20029;-60
2020/12/08 09:52:29;;;;;;;49.67;25.13;;;3.20;99.90;;;;;;5014627;28;20026;-59
2020/12/08 09:54:54;;;;;;;52.30;25.17;;;3.10;99.90;;;;;;5025251;28;20038;-60
2020/12/08 09:57:20;;;;;;;44.95;23.75;;;3.10;99.90;;;;;;5023266;28;20035;-60
2020/12/08 09:59:45;;;;;;;50.35;25.05;;;3.20;99.90;;;;;;5008588;28;20075;-60
2020/12/08 10:02:11;;;;;;;59.28;26.77;;;3.20;99.90;;;;;;5027498;28;20021;-59
2020/12/08 10:04:36;;;;;;;50.15;24.70;;;3.10;99.90;;;;;;5025228;28;20459;-59
2020/12/08 10:07:02;;;;;;;54.53;26.05;;;3.10;99.90;;;;;;5036610;28;20029;-59
2020/12/08 10:09:27;;;;;;;50.38;24.65;;;3.00;99.90;;;;;;5027183;28;20041;-60
2020/12/08 10:11:53;;;;;;;51.92;24.92;;;3.00;99.90;;;;;;5046064;28;20041;-60
2020/12/08 10:14:19;;;;;;;47.95;24.45;;;3.00;99.90;;;;;;5033211;28;20475;-60
2020/12/08 10:16:44;;;;;;;51.10;24.65;;;3.10;99.90;;;;;;5044408;28;20028;-59
2020/12/08 10:19:10;;;;;;;49.47;25.55;;;3.30;99.90;;;;;;5031897;28;20079;-61
2020/12/08 10:21:36;;;;;;;46.22;23.58;;;3.40;99.90;;;;;;5033666;28;20033;-60
2020/12/08 10:24:03;;;;;;;52.80;24.98;;;3.50;99.90;;;;;;5038617;28;20021;-60
2020/12/08 10:26:28;;;;;;;50.58;25.88;;;3.60;99.90;;;;;;5035790;28;20029;-59
2020/12/08 10:28:54;;;;;;;52.80;27.42;;;3.50;99.90;;;;;;5046586;28;20505;-61
2020/12/08 10:31:20;;;;;;;51.08;26.58;;;3.50;99.90;;;;;;5051668;28;20037;-62
2020/12/08 10:33:46;;;;;;;47.60;24.63;;;3.70;99.90;;;;;;5045091;28;20028;-60
2020/12/08 10:36:12;;;;;;;56.25;28.08;;;3.80;99.90;;;;;;5042810;28;20029;-61
2020/12/08 10:38:37;;;;;;;46.58;26.15;;;3.70;99.90;;;;;;5055901;28;20511;-59
2020/12/08 10:41:03;;;;;;;51.67;24.92;;;3.60;99.90;;;;;;5056856;28;20502;-61
2020/12/08 10:43:30;;;;;;;49.88;26.13;;;3.60;99.90;;;;;;5039164;28;20143;-61
2020/12/08 10:45:55;;;;;;;52.08;26.23;;;3.80;99.90;;;;;;5050009;28;20163;-60
2020/12/08 10:48:21;;;;;;;55.90;27.83;;;3.90;99.90;;;;;;5063184;28;20099;-60
2020/12/08 10:50:47;;;;;;;51.42;27.67;;;4.00;99.90;;;;;;5040265;28;20036;-60
2020/12/08 10:53:12;;;;;;;49.97;26.35;;;4.00;99.90;;;;;;5051084;28;20029;-60
2020/12/08 10:55:38;;;;;;;59.03;28.30;;;3.90;99.90;;;;;;5030691;28;20477;-60
2020/12/08 10:58:04;;;;;;;168.52;32.92;;;3.90;99.90;;;;;;5045426;28;20026;-57
2020/12/08 11:00:31;;;;;;;53.60;26.08;;;3.90;99.90;;;;;;5039334;28;20032;-58
2020/12/08 11:02:58;;;;;;;51.50;24.95;;;3.70;99.90;;;;;;5042230;28;20033;-60
2020/12/08 11:05:24;;;;;;;50.50;26.00;;;3.70;99.90;;;;;;5044742;28;20521;-60
2020/12/08 11:07:49;;;;;;;55.72;26.58;;;3.70;99.90;;;;;;5044971;28;20044;-60
2020/12/08 11:10:15;;;;;;;55.35;25.60;;;3.70;99.90;;;;;;5055920;23;20087;-66
2020/12/08 11:12:40;;;;;;;55.30;28.30;;;3.70;99.90;;;;;;5047475;28;20497;-65
2020/12/08 11:15:07;;;;;;;55.05;27.85;;;3.80;99.90;;;;;;5051074;28;20406;-65
2020/12/08 11:17:36;;;;;;;49.33;25.90;;;4.10;99.90;;;;;;5047203;28;20021;-66
2020/12/08 11:20:05;;;;;;;49.65;27.55;;;4.30;99.90;;;;;;5051513;28;20093;-65
2020/12/08 11:22:31;;;;;;;48.85;26.05;;;4.50;99.90;;;;;;5046172;28;20052;-64
2020/12/08 11:24:58;;;;;;;48.85;26.35;;;4.60;99.90;;;;;;5051638;28;20036;-64
2020/12/08 11:27:24;;;;;;;48.65;25.75;;;4.80;99.90;;;;;;5049243;28;20028;-64
2020/12/08 11:29:49;;;;;;;46.45;26.08;;;5.10;99.90;;;;;;5049176;28;20037;-65
2020/12/08 11:32:15;;;;;;;43.55;24.45;;;5.10;99.90;;;;;;5048812;28;20029;-64
2020/12/08 11:34:41;;;;;;;46.53;25.98;;;5.10;99.90;;;;;;5043385;28;20036;-64
2020/12/08 11:37:07;;;;;;;45.28;24.38;;;4.90;99.90;;;;;;5046052;28;20025;-65
2020/12/08 11:39:34;;;;;;;46.50;24.92;;;4.90;99.90;;;;;;5047498;28;20122;-65
2020/12/08 11:41:59;;;;;;;49.63;26.20;;;4.90;99.90;;;;;;5038187;28;20111;-64
2020/12/08 11:44:25;;;;;;;48.22;25.70;;;4.90;99.90;;;;;;5047893;28;20097;-64
2020/12/08 11:46:51;;;;;;;43.58;23.70;;;4.80;99.90;;;;;;5050660;28;20029;-65
2020/12/08 11:49:19;;;;;;;53.17;26.75;;;4.70;99.90;;;;;;5048185;28;20048;-65
2020/12/08 11:51:44;;;;;;;43.25;24.10;;;4.70;99.90;;;;;;5043544;28;20027;-64
2020/12/08 11:54:10;;;;;;;51.45;26.77;;;4.80;99.90;;;;;;5050348;28;20096;-65
2020/12/08 11:56:36;;;;;;;50.75;27.00;;;4.90;99.90;;;;;;5036448;28;20096;-66
2020/12/08 11:59:01;;;;;;;49.55;25.73;;;4.80;99.90;;;;;;5056605;28;20033;-66
2020/12/08 12:01:27;;;;;;;50.03;26.75;;;4.70;99.90;;;;;;5056369;28;20054;-64
2020/12/08 12:03:52;;;;;;;49.25;24.75;;;4.70;99.90;;;;;;5055757;28;20029;-64
2020/12/08 12:06:18;;;;;;;45.50;24.73;;;4.80;99.90;;;;;;5055209;28;20035;-65
2020/12/08 12:08:43;;;;;;;47.45;25.77;;;4.80;99.90;;;;;;5052353;28;20218;-66
2020/12/08 12:11:09;;;;;;;48.60;24.65;;;5.10;99.90;;;;;;5035471;28;20026;-63
2020/12/08 12:13:35;;;;;;;43.53;23.80;;;5.30;99.90;;;;;;5033939;28;20013;-65
2020/12/08 12:16:00;;;;;;;41.60;22.95;;;5.50;99.90;;;;;;5035057;28;20028;-65
2020/12/08 12:18:26;;;;;;;42.60;23.58;;;5.60;99.90;;;;;;5033765;28;20399;-64
2020/12/08 12:20:52;;;;;;;40.03;22.73;;;5.70;99.90;;;;;;5035507;28;20133;-65
2020/12/08 12:23:18;;;;;;;40.92;21.90;;;5.70;99.90;;;;;;5034001;28;20028;-66
2020/12/08 12:25:43;;;;;;;40.97;22.63;;;5.80;99.90;;;;;;5032423;28;20029;-65
2020/12/08 12:28:09;;;;;;;33.85;19.48;;;6.10;99.90;;;;;;5034380;28;20056;-65
2020/12/08 12:30:34;;;;;;;41.63;23.15;;;6.20;99.90;;;;;;5044690;28;20054;-64
2020/12/08 12:33:00;;;;;;;38.60;22.00;;;5.90;99.90;;;;;;5046942;28;20067;-66
2020/12/08 12:35:25;;;;;;;42.40;22.25;;;6.20;99.90;;;;;;5038366;28;20502;-65